Paskenta, California
Current Conditions -  °F | °C
As of 9:54 AM on Wednesday 28 Jan 2015 (Local Time) from KRBL Reporting Station
Clear Clear  
Wind Chill: 54°   Ceiling: Unl
Heat Index: 54°   Visibility: 10mi
Dew Point: 44°   Wind: 7mph
Humidity: 69%   Direction: 360°N
Pressure: 30.29"   Gusts: NA
Location:  39.88°N, 122.55°W
Report Text: KRBL 281754Z AUTO 36006KT 10SM CLR 12/07 A3029 RMK AO2 SLP255 T01220067 10122 20050 55001
Loading
Personal Weather Stations






























Interactive Weather Map New forecast layout! Learn more

10-Day Weather Forecast

Advertisements
Track Severe Weather on mobile